createdAt,value
2023-04-22T00:00:17.069Z,99140.52
2023-04-22T00:02:46.882Z,99143.73
2023-04-22T00:05:17.193Z,99138.83
2023-04-22T00:07:48.496Z,99136.64
2023-04-22T00:10:16.352Z,99132.40
2023-04-22T00:12:44.340Z,99135.27
2023-04-22T00:15:12.583Z,99136.83
2023-04-22T00:17:41.171Z,99137.36
2023-04-22T00:20:11.401Z,99133.48
2023-04-22T00:22:39.496Z,99135.23
2023-04-22T00:25:07.782Z,99137.16
2023-04-22T00:27:36.288Z,99137.89
2023-04-22T00:30:04.936Z,99138.08
2023-04-22T00:32:33.186Z,99148.61
2023-04-22T00:35:01.165Z,99154.91
2023-04-22T00:37:29.466Z,99158.48
2023-04-22T00:39:58.169Z,99155.76
2023-04-22T00:42:26.539Z,99154.95
2023-04-22T00:44:54.590Z,99155.99
2023-04-22T00:47:27.018Z,99155.45
2023-04-22T00:49:55.197Z,99154.32
2023-04-22T00:52:23.156Z,99157.21
2023-04-22T00:54:53.690Z,99155.17
2023-04-22T00:57:21.894Z,99157.05
2023-04-22T00:59:50.694Z,99154.81
2023-04-22T01:02:19.390Z,99154.10
2023-04-22T01:04:47.592Z,99153.30
2023-04-22T01:07:15.933Z,99150.84
2023-04-22T01:09:43.983Z,99150.70
2023-04-22T01:12:12.034Z,99155.79
2023-04-22T01:14:40.058Z,99155.98
2023-04-22T01:17:10.242Z,99156.92
2023-04-22T01:19:38.642Z,99156.58
2023-04-22T01:22:08.175Z,99157.06
2023-04-22T01:24:36.630Z,99155.34
2023-04-22T01:27:04.986Z,99155.45
2023-04-22T01:29:33.940Z,99154.98
2023-04-22T01:32:03.123Z,99153.24
2023-04-22T01:34:31.966Z,99155.23
2023-04-22T01:37:00.340Z,99158.88
2023-04-22T01:39:29.207Z,99156.95
2023-04-22T01:41:58.557Z,99156.58
2023-04-22T01:44:27.055Z,99157.33
2023-04-22T01:46:57.084Z,99155.27
2023-04-22T01:49:25.167Z,99156.05
2023-04-22T01:51:53.210Z,99153.63
2023-04-22T01:54:21.272Z,99156.40
2023-04-22T01:56:52.783Z,99159.80
2023-04-22T01:59:21.546Z,99157.12
2023-04-22T02:01:50.551Z,99162.77
2023-04-22T02:04:19.115Z,99160.73
2023-04-22T02:06:47.047Z,99159.87
2023-04-22T02:09:14.911Z,99166.31
2023-04-22T02:11:43.747Z,99169.86
2023-04-22T02:14:11.801Z,99165.80
2023-04-22T02:16:41.099Z,99170.59
2023-04-22T02:19:08.983Z,99171.59
2023-04-22T02:21:36.866Z,99173.52
2023-04-22T02:24:04.990Z,99175.08
2023-04-22T02:26:32.980Z,99177.79
2023-04-22T02:29:01.395Z,99175.06
2023-04-22T02:31:29.747Z,99175.31
2023-04-22T02:33:58.221Z,99169.72
2023-04-22T02:36:27.803Z,99167.59
2023-04-22T02:38:56.431Z,99177.48
2023-04-22T02:41:24.473Z,99175.66
2023-04-22T02:43:52.540Z,99178.84
2023-04-22T02:46:21.015Z,99178.45
2023-04-22T02:48:49.691Z,99176.16
2023-04-22T02:51:17.756Z,99172.58
2023-04-22T02:53:45.799Z,99173.83
2023-04-22T02:56:13.755Z,99173.77
2023-04-22T02:58:42.303Z,99178.96
2023-04-22T03:01:10.449Z,99175.70
2023-04-22T03:03:39.229Z,99178.41
2023-04-22T03:06:08.006Z,99182.47
2023-04-22T03:08:35.978Z,99180.42
2023-04-22T03:11:04.793Z,99183.28
2023-04-22T03:13:32.775Z,99187.14
2023-04-22T03:16:00.702Z,99191.69
2023-04-22T03:18:29.426Z,99190.86
2023-04-22T03:20:57.479Z,99195.34
2023-04-22T03:23:25.499Z,99200.77
2023-04-22T03:25:53.665Z,99200.05
2023-04-22T03:28:21.712Z,99197.75
2023-04-22T03:30:50.787Z,99198.75
2023-04-22T03:33:19.145Z,99199.65
2023-04-22T03:35:55.197Z,99207.73
2023-04-22T03:38:23.461Z,99206.13
2023-04-22T03:40:52.117Z,99210.58
2023-04-22T03:43:27.291Z,99217.60
2023-04-22T03:46:01.052Z,99216.10
2023-04-22T03:48:35.981Z,99215.62
2023-04-22T03:51:08.407Z,99223.70
2023-04-22T03:53:37.692Z,99226.10
2023-04-22T03:56:06.038Z,99226.95
2023-04-22T03:58:37.040Z,99227.98
2023-04-22T04:01:07.972Z,99232.01
2023-04-22T04:03:37.163Z,99231.08
2023-04-22T04:06:05.940Z,99233.14
2023-04-22T04:08:34.226Z,99234.48
2023-04-22T04:11:02.548Z,99231.65
2023-04-22T04:13:32.592Z,99234.73
2023-04-22T04:16:20.921Z,99238.42
2023-04-22T04:18:53.428Z,99238.70
2023-04-22T04:21:22.080Z,99244.14
2023-04-22T04:23:51.976Z,99247.73
2023-04-22T04:26:24.128Z,99252.02
2023-04-22T04:28:55.957Z,99255.63
2023-04-22T04:31:25.180Z,99261.85
2023-04-22T04:33:53.782Z,99262.59
2023-04-22T04:36:22.081Z,99268.77
2023-04-22T04:38:52.061Z,99265.77
2023-04-22T04:41:23.521Z,99264.13
2023-04-22T04:43:51.942Z,99270.09
2023-04-22T04:46:29.928Z,99271.64
2023-04-22T04:48:58.920Z,99274.33
2023-04-22T04:51:27.756Z,99273.33
2023-04-22T04:53:58.341Z,99271.60
2023-04-22T04:56:27.928Z,99275.66
2023-04-22T04:58:56.441Z,99276.23
2023-04-22T05:01:26.622Z,99274.34
2023-04-22T05:03:55.636Z,99275.34
2023-04-22T05:06:24.013Z,99275.86
2023-04-22T05:08:59.568Z,99277.26
2023-04-22T05:11:27.710Z,99276.70
2023-04-22T05:13:57.804Z,99275.30
2023-04-22T05:16:33.119Z,99272.59
2023-04-22T05:19:01.933Z,99278.15
2023-04-22T05:21:31.599Z,99286.17
2023-04-22T05:24:00.097Z,99286.62
2023-04-22T05:26:28.571Z,99287.86
2023-04-22T05:28:56.735Z,99285.92
2023-04-22T05:31:24.947Z,99284.04
2023-04-22T05:33:53.005Z,99288.02
2023-04-22T05:36:21.855Z,99287.98
2023-04-22T05:38:50.110Z,99289.75
2023-04-22T05:41:18.124Z,99287.01
2023-04-22T05:43:46.534Z,99290.08
2023-04-22T05:46:17.658Z,99285.02
2023-04-22T05:48:46.333Z,99284.05
2023-04-22T05:51:37.345Z,99289.55
2023-04-22T05:54:05.340Z,99292.93
2023-04-22T05:56:33.884Z,99288.09
2023-04-22T05:59:02.260Z,99287.49
2023-04-22T06:01:32.102Z,99293.89
2023-04-22T06:04:05.699Z,99295.71
2023-04-22T06:06:34.080Z,99294.42
2023-04-22T06:09:02.230Z,99296.58
2023-04-22T06:11:30.405Z,99297.59
2023-04-22T06:13:58.419Z,99299.09
2023-04-22T06:16:26.807Z,99300.52
2023-04-22T06:18:54.937Z,99299.88
2023-04-22T06:21:23.635Z,99303.64
2023-04-22T06:23:51.541Z,99301.23
2023-04-22T06:26:19.656Z,99304.23
2023-04-22T06:28:51.004Z,99303.82
2023-04-22T06:31:21.334Z,99302.73
2023-04-22T06:33:49.639Z,99307.33
2023-04-22T06:36:18.855Z,99311.77
2023-04-22T06:38:51.684Z,99312.29
2023-04-22T06:41:44.616Z,99314.91
2023-04-22T06:44:42.126Z,99316.05
2023-04-22T06:47:34.173Z,99319.78
2023-04-22T06:50:15.717Z,99322.59
2023-04-22T06:52:51.574Z,99334.34
2023-04-22T06:55:19.783Z,99329.39
2023-04-22T06:57:47.842Z,99329.82
2023-04-22T07:00:16.399Z,99330.02
2023-04-22T07:02:44.543Z,99331.41
2023-04-22T07:05:12.929Z,99334.17
2023-04-22T07:07:41.856Z,99332.59
2023-04-22T07:10:11.852Z,99334.29
2023-04-22T07:12:43.237Z,99334.83
2023-04-22T07:15:11.310Z,99335.52
2023-04-22T07:17:39.417Z,99337.08
2023-04-22T07:20:07.920Z,99334.95
2023-04-22T07:22:35.979Z,99339.52
2023-04-22T07:25:04.174Z,99346.83
2023-04-22T07:27:32.413Z,99342.46
2023-04-22T07:30:00.429Z,99341.73
2023-04-22T07:32:28.510Z,99340.66
2023-04-22T07:34:56.626Z,99336.83
2023-04-22T07:37:24.848Z,99337.42
2023-04-22T07:39:52.760Z,99346.45
2023-04-22T07:42:20.863Z,99346.83
2023-04-22T07:44:49.621Z,99347.70
2023-04-22T07:47:17.792Z,99350.13
2023-04-22T07:49:45.779Z,99352.39
2023-04-22T07:52:13.906Z,99355.73
2023-04-22T07:54:42.114Z,99356.11
2023-04-22T07:57:10.328Z,99354.44
2023-04-22T07:59:38.579Z,99355.16
2023-04-22T08:02:07.922Z,99355.67
2023-04-22T08:04:37.228Z,99356.79
2023-04-22T08:07:17.108Z,99356.25
2023-04-22T08:09:53.968Z,99357.67
2023-04-22T08:12:22.548Z,99363.15
2023-04-22T08:14:50.821Z,99362.13
2023-04-22T08:17:22.169Z,99364.08
2023-04-22T08:19:50.650Z,99366.36
2023-04-22T08:22:19.082Z,99362.70
2023-04-22T08:24:47.187Z,99367.25
2023-04-22T08:27:15.378Z,99369.83
2023-04-22T08:29:43.630Z,99369.99
2023-04-22T08:32:12.078Z,99372.37
2023-04-22T08:34:40.390Z,99374.77
2023-04-22T08:37:09.252Z,99372.38
2023-04-22T08:39:37.359Z,99372.04
2023-04-22T08:42:05.554Z,99369.66
2023-04-22T08:44:34.497Z,99364.11
2023-04-22T08:47:03.625Z,99371.74
2023-04-22T08:49:32.251Z,99364.07
2023-04-22T08:52:00.565Z,99366.23
2023-04-22T08:54:28.912Z,99365.55
2023-04-22T08:56:57.140Z,99365.11
2023-04-22T08:59:25.375Z,99370.47
2023-04-22T09:01:56.577Z,99368.05
2023-04-22T09:04:24.965Z,99365.86
2023-04-22T09:06:53.082Z,99363.14
2023-04-22T09:09:21.274Z,99369.90
2023-04-22T09:11:49.353Z,99372.23
2023-04-22T09:14:17.746Z,99373.63
2023-04-22T09:16:48.970Z,99376.32
2023-04-22T09:19:17.222Z,99368.19
2023-04-22T09:21:46.506Z,99365.29
2023-04-22T09:24:16.482Z,99361.55
2023-04-22T09:26:44.539Z,99359.20
2023-04-22T09:29:15.994Z,99364.20
2023-04-22T09:31:52.893Z,99361.52
2023-04-22T09:34:21.981Z,99360.14
2023-04-22T09:36:50.590Z,99362.29
2023-04-22T09:39:18.612Z,99354.69
2023-04-22T09:41:46.647Z,99351.65
2023-04-22T09:44:15.344Z,99353.27
2023-04-22T09:46:43.781Z,99358.00
2023-04-22T09:49:11.953Z,99360.67
2023-04-22T09:51:40.338Z,99363.54
2023-04-22T09:54:11.802Z,99358.83
2023-04-22T09:56:46.826Z,99361.84
2023-04-22T09:59:24.706Z,99357.55
2023-04-22T10:01:53.363Z,99356.73
2023-04-22T10:04:21.871Z,99364.28
2023-04-22T10:06:50.168Z,99371.17
2023-04-22T10:09:19.789Z,99369.69
2023-04-22T10:11:48.388Z,99370.31
2023-04-22T10:14:16.581Z,99371.82
2023-04-22T10:16:46.378Z,99369.99
2023-04-22T10:19:16.636Z,99370.61
2023-04-22T10:21:44.982Z,99366.14
2023-04-22T10:24:18.073Z,99364.56
2023-04-22T10:26:50.061Z,99365.80
2023-04-22T10:29:18.747Z,99360.60
2023-04-22T10:32:16.356Z,99369.10
2023-04-22T10:34:44.931Z,99366.00
2023-04-22T10:37:13.613Z,99364.89
2023-04-22T10:39:43.321Z,99367.34
2023-04-22T10:42:12.179Z,99373.36
2023-04-22T10:44:46.508Z,99369.27
2023-04-22T10:47:34.736Z,99375.88
2023-04-22T10:50:22.519Z,99374.66
2023-04-22T10:52:57.363Z,99373.71
2023-04-22T10:55:26.123Z,99369.96
2023-04-22T10:57:55.416Z,99372.95
2023-04-22T11:00:25.678Z,99371.59
2023-04-22T11:03:06.171Z,99373.48
2023-04-22T11:05:36.198Z,99374.84
2023-04-22T11:08:24.049Z,99372.90
2023-04-22T11:10:52.249Z,99372.02
2023-04-22T11:13:21.527Z,99369.21
2023-04-22T11:15:50.200Z,99372.95
2023-04-22T11:18:25.263Z,99366.20
2023-04-22T11:20:53.798Z,99373.77
2023-04-22T11:23:25.792Z,99371.65
2023-04-22T11:25:54.359Z,99376.13
2023-04-22T11:28:23.163Z,99380.88
2023-04-22T11:30:51.533Z,99382.38
2023-04-22T11:33:19.541Z,99383.98
2023-04-22T11:35:49.091Z,99389.38
2023-04-22T11:38:17.078Z,99389.33
2023-04-22T11:40:46.963Z,99385.55
2023-04-22T11:43:16.481Z,99383.08
2023-04-22T11:45:44.571Z,99380.53
2023-04-22T11:48:12.574Z,99385.68
2023-04-22T11:50:41.152Z,99389.64
2023-04-22T11:53:19.165Z,99387.69
2023-04-22T11:55:48.146Z,99387.59
2023-04-22T11:58:20.546Z,99388.64
2023-04-22T12:00:49.387Z,99389.64
2023-04-22T12:03:21.669Z,99387.94
2023-04-22T12:05:53.622Z,99393.86
2023-04-22T12:08:22.540Z,99392.45
2023-04-22T12:10:57.012Z,99390.07
2023-04-22T12:13:26.112Z,99386.25
2023-04-22T12:15:55.228Z,99380.95
2023-04-22T12:18:32.897Z,99379.85
2023-04-22T12:21:03.034Z,99384.30
2023-04-22T12:23:31.908Z,99390.23
2023-04-22T12:26:01.972Z,99391.25
2023-04-22T12:28:30.957Z,99385.85
2023-04-22T12:30:59.541Z,99385.64
2023-04-22T12:33:27.925Z,99383.76
2023-04-22T12:35:56.061Z,99389.22
2023-04-22T12:38:24.013Z,99386.16
2023-04-22T12:40:54.077Z,99393.61
2023-04-22T12:43:22.090Z,99388.98
2023-04-22T12:45:50.363Z,99391.90
2023-04-22T12:48:18.376Z,99391.02
2023-04-22T12:50:46.563Z,99391.70
2023-04-22T12:53:14.823Z,99387.39
2023-04-22T12:55:45.455Z,99390.07
2023-04-22T12:58:14.794Z,99387.98
2023-04-22T13:00:42.993Z,99382.81
2023-04-22T13:03:11.729Z,99381.02
2023-04-22T13:05:40.540Z,99377.33
2023-04-22T13:08:08.493Z,99380.91
2023-04-22T13:10:36.625Z,99380.38
2023-04-22T13:15:36.704Z,99381.40
2023-04-22T13:18:04.583Z,99382.30
2023-04-22T13:20:32.579Z,99387.27
2023-04-22T13:23:02.520Z,99389.38
2023-04-22T13:25:30.797Z,99387.33
2023-04-22T13:27:58.797Z,99388.27
2023-04-22T13:30:26.931Z,99392.13
2023-04-22T13:32:54.901Z,99391.06
2023-04-22T13:35:23.222Z,99393.02
2023-04-22T13:37:51.472Z,99395.57
2023-04-22T13:40:19.650Z,99392.31
2023-04-22T13:42:47.861Z,99390.80
2023-04-22T13:45:15.990Z,99389.63
2023-04-22T13:47:43.974Z,99389.27
2023-04-22T13:50:12.096Z,99386.58
2023-04-22T13:52:40.512Z,99390.81
2023-04-22T13:55:08.861Z,99387.98
2023-04-22T13:57:37.038Z,99385.67
2023-04-22T14:00:05.478Z,99388.20
2023-04-22T14:02:40.061Z,99387.27
2023-04-22T14:05:10.612Z,99388.73
2023-04-22T14:07:38.872Z,99388.45
2023-04-22T14:10:08.712Z,99388.34
2023-04-22T14:12:38.180Z,99383.67
2023-04-22T14:15:06.641Z,99388.82
2023-04-22T14:17:35.164Z,99391.33
2023-04-22T14:20:05.191Z,99393.09
2023-04-22T14:22:33.446Z,99393.98
2023-04-22T14:25:01.889Z,99392.38
2023-04-22T14:27:30.433Z,99397.69
2023-04-22T14:29:58.494Z,99397.39
2023-04-22T14:32:26.513Z,99396.23
2023-04-22T14:34:55.404Z,99398.79
2023-04-22T14:37:23.926Z,99402.71
2023-04-22T14:39:52.287Z,99400.85
2023-04-22T14:42:20.692Z,99401.45
2023-04-22T14:44:48.777Z,99402.08
2023-04-22T14:47:16.932Z,99399.62
2023-04-22T14:49:45.318Z,99399.33
2023-04-22T14:52:13.388Z,99405.48
2023-04-22T14:54:41.631Z,99406.46
2023-04-22T14:57:09.733Z,99409.48
2023-04-22T14:59:37.749Z,99407.95
2023-04-22T15:02:06.423Z,99412.25
2023-04-22T15:04:34.615Z,99409.73
2023-04-22T15:07:03.654Z,99411.06
2023-04-22T15:09:33.123Z,99414.98
2023-04-22T15:12:04.920Z,99415.45
2023-04-22T15:14:35.594Z,99420.08
2023-04-22T15:17:03.722Z,99415.22
2023-04-22T15:19:31.907Z,99427.42
2023-04-22T15:22:00.006Z,99419.23
2023-04-22T15:24:28.133Z,99418.03
2023-04-22T15:26:57.002Z,99414.52
2023-04-22T15:29:25.117Z,99419.60
2023-04-22T15:31:54.567Z,99420.75
2023-04-22T15:34:23.686Z,99423.11
2023-04-22T15:36:51.708Z,99422.48
2023-04-22T15:39:19.953Z,99426.74
2023-04-22T15:41:47.968Z,99428.72
2023-04-22T15:44:16.916Z,99432.26
2023-04-22T15:46:45.804Z,99434.34
2023-04-22T15:49:15.015Z,99435.86
2023-04-22T15:51:43.437Z,99434.90
2023-04-22T15:54:12.227Z,99435.88
2023-04-22T15:56:40.755Z,99431.92
2023-04-22T15:59:08.775Z,99433.45
2023-04-22T16:01:38.193Z,99436.28
2023-04-22T16:04:07.197Z,99435.48
2023-04-22T16:06:36.694Z,99435.48
2023-04-22T16:09:05.405Z,99439.25
2023-04-22T16:11:33.740Z,99438.63
2023-04-22T16:14:01.700Z,99441.95
2023-04-22T16:16:29.760Z,99443.59
2023-04-22T16:18:58.432Z,99445.70
2023-04-22T16:21:26.481Z,99449.79
2023-04-22T16:23:54.426Z,99450.88
2023-04-22T16:26:22.361Z,99457.17
2023-04-22T16:28:51.419Z,99460.06
2023-04-22T16:31:22.867Z,99457.07
2023-04-22T16:33:51.394Z,99460.81
2023-04-22T16:36:19.666Z,99464.85
2023-04-22T16:38:48.905Z,99465.20
2023-04-22T16:41:16.995Z,99465.95
2023-04-22T16:43:45.162Z,99469.42
2023-04-22T16:46:13.378Z,99467.92
2023-04-22T16:48:41.519Z,99471.56
2023-04-22T16:51:09.736Z,99469.36
2023-04-22T16:53:37.952Z,99474.41
2023-04-22T16:56:06.352Z,99476.75
2023-04-22T16:58:35.360Z,99478.00
2023-04-22T17:01:04.009Z,99477.91
2023-04-22T17:03:32.998Z,99481.23
2023-04-22T17:06:02.354Z,99485.61
2023-04-22T17:08:31.443Z,99484.52
2023-04-22T17:10:59.835Z,99489.11
2023-04-22T17:13:27.866Z,99494.92
2023-04-22T17:15:56.164Z,99494.66
2023-04-22T17:18:24.316Z,99498.06
2023-04-22T17:20:52.301Z,99501.44
2023-04-22T17:23:23.135Z,99502.55
2023-04-22T17:25:51.393Z,99505.87
2023-04-22T17:28:20.270Z,99508.27
2023-04-22T17:30:48.554Z,99507.36
2023-04-22T17:33:18.074Z,99509.02
2023-04-22T17:35:47.852Z,99515.45
2023-04-22T17:38:16.126Z,99517.45
2023-04-22T17:40:44.912Z,99520.65
2023-04-22T17:43:13.157Z,99518.77
2023-04-22T17:45:41.300Z,99522.42
2023-04-22T17:48:09.304Z,99525.79
2023-04-22T17:50:37.962Z,99528.46
2023-04-22T17:53:06.326Z,99533.67
2023-04-22T17:55:35.456Z,99534.55
2023-04-22T17:58:05.662Z,99538.64
2023-04-22T18:00:35.626Z,99539.89
2023-04-22T18:03:04.390Z,99545.04
2023-04-22T18:05:32.789Z,99544.98
2023-04-22T18:08:02.994Z,99546.79
2023-04-22T18:10:31.572Z,99550.95
2023-04-22T18:12:59.971Z,99550.34
2023-04-22T18:15:28.370Z,99553.85
2023-04-22T18:17:56.510Z,99557.06
2023-04-22T18:20:24.504Z,99561.09
2023-04-22T18:22:52.702Z,99558.87
2023-04-22T18:25:21.069Z,99561.58
2023-04-22T18:27:50.743Z,99564.45
2023-04-22T18:30:18.773Z,99570.17
2023-04-22T18:32:47.113Z,99567.55
2023-04-22T18:35:16.252Z,99568.16
2023-04-22T18:37:44.547Z,99570.48
2023-04-22T18:40:12.727Z,99564.00
2023-04-22T18:42:44.974Z,99567.79
2023-04-22T18:45:13.308Z,99569.04
2023-04-22T18:47:47.492Z,99567.57
2023-04-22T18:50:15.979Z,99570.28
2023-04-22T18:52:44.067Z,99570.43
2023-04-22T18:55:12.281Z,99573.89
2023-04-22T18:57:41.573Z,99575.23
2023-04-22T19:00:10.279Z,99577.08
2023-04-22T19:02:41.515Z,99576.64
2023-04-22T19:05:10.868Z,99572.85
2023-04-22T19:07:41.234Z,99577.02
2023-04-22T19:10:10.407Z,99574.70
2023-04-22T19:12:38.427Z,99576.92
2023-04-22T19:15:07.038Z,99574.17
2023-04-22T19:17:35.639Z,99576.71
2023-04-22T19:20:06.145Z,99580.13
2023-04-22T19:22:34.696Z,99584.34
2023-04-22T19:25:02.663Z,99584.08
2023-04-22T19:27:30.961Z,99582.95
2023-04-22T19:29:58.939Z,99585.27
2023-04-22T19:32:26.996Z,99587.34
2023-04-22T19:34:55.317Z,99586.45
2023-04-22T19:37:23.923Z,99589.59
2023-04-22T19:39:51.859Z,99589.00
2023-04-22T19:42:20.992Z,99592.48
2023-04-22T19:44:49.137Z,99593.40
2023-04-22T19:47:17.465Z,99591.61
2023-04-22T19:49:46.309Z,99595.84
2023-04-22T19:52:15.810Z,99600.07
2023-04-22T19:54:45.938Z,99601.38
2023-04-22T19:57:15.684Z,99600.57
2023-04-22T19:59:43.569Z,99601.92
2023-04-22T20:02:11.829Z,99601.85
2023-04-22T20:04:41.238Z,99604.27
2023-04-22T20:07:09.392Z,99602.77
2023-04-22T20:09:38.885Z,99603.80
2023-04-22T20:12:07.041Z,99604.34
2023-04-22T20:14:35.112Z,99605.65
2023-04-22T20:17:03.197Z,99607.20
2023-04-22T20:19:31.662Z,99606.36
2023-04-22T20:22:00.034Z,99611.02
2023-04-22T20:24:28.575Z,99614.95
2023-04-22T20:26:56.815Z,99611.34
2023-04-22T20:29:25.686Z,99608.95
2023-04-22T20:31:55.778Z,99614.75
2023-04-22T20:34:24.408Z,99616.20
2023-04-22T20:36:54.897Z,99611.96
2023-04-22T20:39:23.038Z,99613.42
2023-04-22T20:41:52.933Z,99615.16
2023-04-22T20:44:21.086Z,99615.54
2023-04-22T20:46:49.062Z,99615.80
2023-04-22T20:49:17.538Z,99616.51
2023-04-22T20:51:45.587Z,99615.98
2023-04-22T20:54:27.903Z,99612.80
2023-04-22T20:56:58.007Z,99613.98
2023-04-22T20:59:26.165Z,99614.16
2023-04-22T21:01:54.854Z,99616.98
2023-04-22T21:04:24.127Z,99614.19
2023-04-22T21:06:52.879Z,99618.55
2023-04-22T21:09:21.069Z,99616.41
2023-04-22T21:11:50.296Z,99614.25
2023-04-22T21:14:24.310Z,99619.30
2023-04-22T21:16:53.997Z,99621.40
2023-04-22T21:19:22.042Z,99618.81
2023-04-22T21:21:50.236Z,99619.57
2023-04-22T21:24:18.489Z,99625.15
2023-04-22T21:26:47.399Z,99621.86
2023-04-22T21:29:15.552Z,99621.86
2023-04-22T21:31:51.503Z,99622.45
2023-04-22T21:34:32.931Z,99622.73
2023-04-22T21:37:00.902Z,99623.65
2023-04-22T21:39:29.440Z,99627.38
2023-04-22T21:41:58.467Z,99623.66
2023-04-22T21:44:26.514Z,99622.02
2023-04-22T21:46:54.445Z,99622.96
2023-04-22T21:49:23.297Z,99620.81
2023-04-22T21:51:51.478Z,99624.27
2023-04-22T21:54:19.400Z,99621.67
2023-04-22T21:56:47.479Z,99622.75
2023-04-22T21:59:15.478Z,99622.48
2023-04-22T22:01:43.429Z,99622.91
2023-04-22T22:04:13.982Z,99622.38
2023-04-22T22:06:44.231Z,99625.79
2023-04-22T22:09:15.336Z,99623.68
2023-04-22T22:11:44.193Z,99630.49
2023-04-22T22:14:12.216Z,99631.94
2023-04-22T22:16:40.399Z,99630.55
2023-04-22T22:19:11.258Z,99630.41
2023-04-22T22:21:39.166Z,99630.30
2023-04-22T22:24:09.484Z,99632.95
2023-04-22T22:26:41.194Z,99630.73
2023-04-22T22:29:15.546Z,99635.38
2023-04-22T22:31:43.993Z,99634.34
2023-04-22T22:34:11.895Z,99634.16
2023-04-22T22:36:40.436Z,99631.52
2023-04-22T22:39:10.457Z,99632.13
2023-04-22T22:41:39.135Z,99631.30
2023-04-22T22:44:08.159Z,99631.58
2023-04-22T22:46:36.136Z,99629.86
2023-04-22T22:49:04.383Z,99635.05
2023-04-22T22:51:32.863Z,99634.52
2023-04-22T22:54:01.094Z,99636.71
2023-04-22T22:56:29.416Z,99638.98
2023-04-22T22:58:57.452Z,99632.92
2023-04-22T23:01:25.738Z,99638.10
2023-04-22T23:03:53.869Z,99637.71
2023-04-22T23:06:22.088Z,99636.58
2023-04-22T23:08:50.340Z,99637.42
2023-04-22T23:11:18.600Z,99636.54
2023-04-22T23:13:47.933Z,99638.10
2023-04-22T23:16:16.591Z,99638.08
2023-04-22T23:18:44.771Z,99637.36
2023-04-22T23:21:12.847Z,99640.95
2023-04-22T23:23:40.832Z,99640.63
2023-04-22T23:26:09.157Z,99641.26
2023-04-22T23:28:37.197Z,99641.07
2023-04-22T23:31:05.287Z,99642.26
2023-04-22T23:33:34.424Z,99639.86
2023-04-22T23:36:03.502Z,99640.67
2023-04-22T23:38:31.559Z,99642.66
2023-04-22T23:40:59.575Z,99642.80
2023-04-22T23:43:27.540Z,99644.48
2023-04-22T23:45:55.825Z,99644.20
2023-04-22T23:48:24.049Z,99642.64
2023-04-22T23:50:52.151Z,99644.79
2023-04-22T23:53:20.341Z,99642.51
2023-04-22T23:55:48.810Z,99642.98
2023-04-22T23:58:17.130Z,99646.42
